| time (UTC) | temp C | wind direction | speed KPH | gust KPH | rain 1hr cm | rain 24hr cm | rain mn cm | humidity % | barometer mb |
| 20260906171601 | 36 | 100 | 8.0 | 16.1 | 0.00 | 0.00 | 0.00 | 43 | 1015.6 |
| 20260906170109 | 36 | 53 | 3.2 | 12.9 | 0.00 | 0.00 | 0.00 | 44 | 1015.9 |
| 20260906164601 | 36 | 37 | 4.8 | 17.7 | 0.00 | 0.00 | 0.00 | 45 | 1016.0 |
| 20260906163058 | 35 | 89 | 9.7 | 17.7 | 0.00 | 0.00 | 0.00 | 47 | 1016.0 |
| 20260906161601 | 35 | 50 | 6.4 | 17.7 | 0.00 | 0.00 | 0.00 | 49 | 1016.1 |
| 20260906160058 | 34 | 9 | 8.0 | 16.1 | 0.00 | 0.00 | 0.00 | 50 | 1016.2 |
| 20260906154553 | 33 | 105 | 6.4 | 14.5 | 0.00 | 0.00 | 0.00 | 52 | 1016.1 |
| 20260906153102 | 33 | 134 | 4.8 | 12.9 | 0.00 | 0.00 | 0.00 | 54 | 1016.1 |
| 20260906151601 | 33 | 39 | 6.4 | 9.7 | 0.00 | 0.00 | 0.00 | 53 | 1016.0 |
| 20260906150125 | 32 | 95 | 8.0 | 14.5 | 0.00 | 0.00 | 0.00 | 55 | 1015.9 |
| 20260906144556 | 31 | 101 | 6.4 | 16.1 | 0.00 | 0.00 | 0.00 | 58 | 1015.8 |
| 20260906143055 | 31 | 65 | 4.8 | 11.3 | 0.00 | 0.00 | 0.00 | 61 | 1015.7 |
| 20260906141559 | 30 | 143 | 8.0 | 12.9 | 0.00 | 0.00 | 0.00 | 62 | 1015.8 |
| 20260906140100 | 28 | 86 | 6.4 | 12.9 | 0.00 | 0.00 | 0.00 | 66 | 1015.8 |
| 20260906134556 | 27 | 63 | 4.8 | 9.7 | 0.00 | 0.00 | 0.00 | 70 | 1015.7 |
| 20260906133109 | 26 | 61 | 3.2 | 8.0 | 0.00 | 0.00 | 0.00 | 74 | 1015.7 |
| 20260906131604 | 25 | 46 | 3.2 | 8.0 | 0.00 | 0.00 | 0.00 | 77 | 1015.5 |
| 20260906130110 | 24 | 32 | 3.2 | 4.8 | 0.00 | 0.00 | 0.00 | 80 | 1015.4 |
| 20260906124558 | 23 | 0 | 0.0 | 0.0 | 0.00 | 0.00 | 0.00 | 82 | 1015.3 |
| 20260906123056 | 22 | 0 | 0.0 | 0.0 | 0.00 | 0.00 | 0.00 | 84 | 1015.3 |
| 20260906121601 | 22 | 0 | 0.0 | 0.0 | 0.00 | 0.00 | 0.00 | 84 | 1015.0 |
| 20260906120057 | 22 | 0 | 0.0 | 0.0 | 0.00 | 0.00 | 0.00 | 84 | 1015.0 |
| 20260906114552 | 22 | 0 | 0.0 | 3.2 | 0.00 | 0.00 | 0.00 | 83 | 1015.0 |
| 20260906113104 | 22 | 32 | 3.2 | 6.4 | 0.00 | 0.00 | 0.00 | 83 | 1014.9 |
| 20260906111559 | 22 | 0 | 0.0 | 0.0 | 0.00 | 0.00 | 0.00 | 82 | 1014.5 |
| 20260906110100 | 22 | 0 | 0.0 | 0.0 | 0.00 | 0.00 | 0.00 | 82 | 1014.6 |
| 20260906104555 | 22 | 0 | 0.0 | 0.0 | 0.00 | 0.00 | 0.00 | 82 | 1014.7 |
| 20260906103102 | 22 | 0 | 0.0 | 0.0 | 0.00 | 0.00 | 0.00 | 81 | 1014.7 |
| 20260906101601 | 22 | 0 | 0.0 | 0.0 | 0.00 | 0.00 | 0.00 | 81 | 1014.6 |
| 20260906100058 | 22 | 0 | 0.0 | 0.0 | 0.00 | 0.00 | 0.00 | 81 | 1014.6 |
| 20260906094607 | 23 | 0 | 0.0 | 0.0 | 0.00 | 0.00 | 0.00 | 80 | 1014.3 |
| 20260906093112 | 23 | 0 | 0.0 | 0.0 | 0.00 | 0.00 | 0.00 | 80 | 1014.1 |
| 20260906091557 | 23 | 0 | 0.0 | 0.0 | 0.00 | 0.00 | 0.00 | 80 | 1014.0 |
| 20260906090136 | 23 | 0 | 0.0 | 0.0 | 0.00 | 0.00 | 0.00 | 80 | 1014.0 |
| 20260906084620 | 23 | 0 | 0.0 | 0.0 | 0.00 | 0.00 | 0.00 | 79 | 1013.9 |
| 20260906083100 | 23 | 0 | 0.0 | 0.0 | 0.00 | 0.00 | 0.00 | 78 | 1013.8 |
| 20260906081604 | 23 | 0 | 0.0 | 0.0 | 0.00 | 0.00 | 0.00 | 78 | 1013.7 |
| 20260906080106 | 23 | 0 | 0.0 | 0.0 | 0.00 | 0.00 | 0.00 | 77 | 1013.7 |
| 20260906074604 | 24 | 0 | 0.0 | 0.0 | 0.00 | 0.00 | 0.00 | 76 | 1013.8 |
| 20260906073059 | 25 | 0 | 0.0 | 0.0 | 0.00 | 0.00 | 0.00 | 74 | 1013.9 |
| 20260906071602 | 25 | 0 | 0.0 | 0.0 | 0.00 | 0.00 | 0.00 | 73 | 1013.9 |
| 20260906070103 | 25 | 0 | 0.0 | 0.0 | 0.00 | 0.00 | 0.00 | 72 | 1014.1 |
| 20260906064556 | 25 | 0 | 0.0 | 0.0 | 0.00 | 0.00 | 0.00 | 73 | 1014.2 |
| 20260906063104 | 25 | 0 | 0.0 | 0.0 | 0.00 | 0.00 | 0.00 | 72 | 1014.3 |
| 20260906061607 | 25 | 0 | 0.0 | 0.0 | 0.00 | 0.00 | 0.00 | 73 | 1014.3 |
| 20260906054607 | 25 | 0 | 0.0 | 0.0 | 0.00 | 0.00 | 0.00 | 73 | 1014.3 |
| 20260906053118 | 25 | 0 | 0.0 | 0.0 | 0.00 | 0.00 | 0.00 | 74 | 1014.4 |
| 20260906051601 | 25 | 0 | 0.0 | 0.0 | 0.00 | 0.00 | 0.00 | 73 | 1014.3 |
| 20260906050104 | 25 | 0 | 0.0 | 0.0 | 0.00 | 0.00 | 0.00 | 72 | 1014.2 |
| 20260906044606 | 25 | 0 | 0.0 | 0.0 | 0.00 | 0.00 | 0.00 | 73 | 1014.4 |
| 20260906043102 | 25 | 0 | 0.0 | 3.2 | 0.00 | 0.00 | 0.00 | 72 | 1014.5 |
| 20260906041559 | 26 | 0 | 0.0 | 1.6 | 0.00 | 0.00 | 0.00 | 70 | 1014.5 |
| 20260906040105 | 26 | 0 | 0.0 | 3.2 | 0.00 | 0.00 | 0.00 | 70 | 1014.3 |
| 20260906034600 | 26 | 0 | 0.0 | 0.0 | 0.00 | 0.00 | 0.00 | 68 | 1014.2 |
| 20260906033100 | 27 | 0 | 0.0 | 4.8 | 0.00 | 0.00 | 0.00 | 66 | 1014.1 |
| 20260906031600 | 27 | 75 | 1.6 | 4.8 | 0.00 | 0.00 | 0.00 | 67 | 1014.0 |
| 20260906030056 | 27 | 31 | 1.6 | 4.8 | 0.00 | 0.00 | 0.00 | 64 | 1013.9 |
| 20260906024622 | 27 | 0 | 0.0 | 3.2 | 0.00 | 0.00 | 0.00 | 63 | 1013.8 |
| 20260906023105 | 28 | 58 | 1.6 | 4.8 | 0.00 | 0.00 | 0.00 | 61 | 1013.6 |
| 20260906021600 | 29 | 58 | 3.2 | 4.8 | 0.00 | 0.00 | 0.00 | 60 | 1013.5 |
| 20260906020055 | 29 | 46 | 3.2 | 6.4 | 0.00 | 0.00 | 0.00 | 58 | 1013.3 |
| 20260906014559 | 30 | 74 | 1.6 | 6.4 | 0.00 | 0.00 | 0.00 | 56 | 1013.1 |
| 20260906013055 | 31 | 0 | 0.0 | 0.0 | 0.00 | 0.00 | 0.00 | 54 | 1013.0 |
| 20260906011601 | 31 | 0 | 1.6 | 4.8 | 0.00 | 0.00 | 0.00 | 52 | 1012.9 |
| 20260906010127 | 32 | 94 | 3.2 | 11.3 | 0.00 | 0.00 | 0.00 | 51 | 1012.8 |
| 20260906004601 | 33 | 121 | 4.8 | 16.1 | 0.00 | 0.00 | 0.00 | 48 | 1012.5 |
| 20260906003054 | 34 | 124 | 8.0 | 14.5 | 0.00 | 0.00 | 0.00 | 47 | 1012.7 |
| 20260906001604 | 35 | 26 | 4.8 | 19.3 | 0.00 | 0.00 | 0.00 | 45 | 1012.4 |
| 20260906000100 | 35 | 40 | 1.6 | 6.4 | 0.00 | 0.00 | 0.00 | 44 | 1012.6 |
| 20260905234558 | 35 | 64 | 0.0 | 3.2 | 0.00 | 0.00 | 0.00 | 44 | 1012.2 |
| 20260905233057 | 35 | 64 | 1.6 | 4.8 | 0.00 | 0.00 | 0.00 | 44 | 1012.2 |
| 20260905231600 | 35 | 64 | 1.6 | 4.8 | 0.00 | 0.00 | 0.00 | 42 | 1012.4 |
| 20260905230113 | 36 | 36 | 3.2 | 12.9 | 0.00 | 0.00 | 0.00 | 41 | 1012.4 |
| 20260905224601 | 37 | 19 | 4.8 | 12.9 | 0.00 | 0.00 | 0.00 | 37 | 1012.2 |
| 20260905223101 | 37 | 360 | 3.2 | 9.7 | 0.00 | 0.00 | 0.00 | 37 | 1012.1 |
| 20260905221557 | 37 | 25 | 6.4 | 17.7 | 0.00 | 0.00 | 0.00 | 38 | 1012.2 |
| 20260905220104 | 36 | 67 | 3.2 | 8.0 | 0.00 | 0.00 | 0.00 | 40 | 1012.5 |
| 20260905214557 | 36 | 5 | 4.8 | 12.9 | 0.00 | 0.00 | 0.00 | 40 | 1012.5 |
| 20260905213057 | 36 | 347 | 4.8 | 20.9 | 0.00 | 0.00 | 0.00 | 40 | 1012.7 |
| 20260905211606 | 38 | 345 | 11.3 | 22.5 | 0.00 | 0.00 | 0.00 | 36 | 1012.7 |
| 20260905210104 | 39 | 207 | 0.0 | 12.9 | 0.00 | 0.00 | 0.00 | 34 | 1012.8 |
| 20260905204605 | 38 | 100 | 0.0 | 14.5 | 0.00 | 0.00 | 0.00 | 36 | 1013.0 |
| 20260905203059 | 37 | 9 | 8.0 | 16.1 | 0.00 | 0.00 | 0.00 | 36 | 1013.2 |
| 20260905201609 | 37 | 9 | 6.4 | 16.1 | 0.00 | 0.00 | 0.00 | 38 | 1013.4 |
| 20260905200059 | 38 | 355 | 9.7 | 22.5 | 0.00 | 0.00 | 0.00 | 37 | 1013.4 |
| 20260905194555 | 37 | 216 | 4.8 | 12.9 | 0.00 | 0.00 | 0.00 | 37 | 1013.6 |
| 20260905193055 | 38 | 19 | 4.8 | 12.9 | 0.00 | 0.00 | 0.00 | 36 | 1013.8 |
| 20260905191601 | 38 | 120 | 8.0 | 16.1 | 0.00 | 0.00 | 0.00 | 36 | 1014.0 |
| 20260905190104 | 38 | 226 | 3.2 | 14.5 | 0.00 | 0.00 | 0.00 | 38 | 1014.1 |
| 20260905184612 | 37 | 355 | 3.2 | 16.1 | 0.00 | 0.00 | 0.00 | 39 | 1014.5 |
| 20260905183115 | 37 | 319 | 8.0 | 16.1 | 0.00 | 0.00 | 0.00 | 39 | 1014.7 |
| 20260905181603 | 38 | 11 | 8.0 | 16.1 | 0.00 | 0.00 | 0.00 | 39 | 1014.9 |
| 20260905180104 | 37 | 0 | 0.0 | 12.9 | 0.00 | 0.00 | 0.00 | 40 | 1015.1 |
| 20260905174605 | 36 | 30 | 9.7 | 19.3 | 0.00 | 0.00 | 0.00 | 41 | 1015.5 |
| 20260905173115 | 35 | 77 | 1.6 | 6.4 | 0.00 | 0.00 | 0.00 | 44 | 1015.5 |